Time;durP1;ratioP1;P1;durP2;ratioP2;P2;SDS_P1;SDS_P2;PMS_P1;PMS_P2;Temp;Humidity;BMP_temperature;BMP_pressure;BME280_temperature;BME280_humidity;BME280_pressure;Samples;Min_cycle;Max_cycle;Signal;HPM_P1;HPM_P2
2020/12/01 00:01:24;;;;;;;40.88;25.35;;;;;;;1.74;81.39;99057.06;5037280;28;20332;-77
2020/12/01 00:03:50;;;;;;;45.60;25.13;;;;;;;1.75;81.88;99053.50;5045275;28;20229;-78
2020/12/01 00:06:20;;;;;;;42.17;25.00;;;;;;;1.84;81.88;99041.75;5048125;28;20297;-77
2020/12/01 00:08:46;;;;;;;42.47;24.88;;;;;;;1.83;82.12;99032.94;5024126;28;20292;-78
2020/12/01 00:11:15;;;;;;;41.42;24.70;;;;;;;1.85;81.95;99031.09;5046469;28;20231;-78
2020/12/01 00:13:42;;;;;;;49.20;25.77;;;;;;;1.81;82.47;99021.50;5042591;28;20221;-78
2020/12/01 00:16:13;;;;;;;41.80;24.17;;;;;;;1.80;81.61;99030.38;5043162;28;20610;-77
2020/12/01 00:18:39;;;;;;;42.80;24.30;;;;;;;1.79;81.69;99019.81;5059624;28;20211;-79
2020/12/01 00:21:11;;;;;;;42.85;23.95;;;;;;;1.84;81.79;99007.28;5059068;28;20263;-78
2020/12/01 00:23:37;;;;;;;42.25;23.08;;;;;;;1.82;80.88;99014.44;5042528;28;20233;-79
2020/12/01 00:26:04;;;;;;;41.58;23.60;;;;;;;1.78;81.65;98995.13;5045635;28;20233;-79
2020/12/01 00:28:31;;;;;;;37.13;22.17;;;;;;;1.91;81.08;98996.44;5045819;28;20213;-77
2020/12/01 00:30:58;;;;;;;40.15;22.92;;;;;;;2.01;80.97;98997.84;5049038;28;20229;-78
2020/12/01 00:33:24;;;;;;;38.70;23.10;;;;;;;1.95;80.82;98997.22;5030818;28;20193;-78
2020/12/01 00:35:51;;;;;;;37.10;21.08;;;;;;;1.92;80.83;98992.88;5047946;28;21971;-78
2020/12/01 00:38:20;;;;;;;35.65;21.92;;;;;;;1.87;80.91;98986.84;5046266;28;20201;-79
2020/12/01 00:40:50;;;;;;;40.45;22.75;;;;;;;1.94;81.94;98980.41;5027988;28;20217;-77
2020/12/01 00:43:17;;;;;;;35.25;20.77;;;;;;;1.94;81.07;98975.13;5060248;28;20240;-78
2020/12/01 00:45:44;;;;;;;42.30;23.02;;;;;;;1.91;81.27;98977.00;5046714;28;20215;-77
2020/12/01 00:48:13;;;;;;;38.40;21.10;;;;;;;2.00;80.84;98974.91;5043552;28;20216;-80
2020/12/01 00:50:40;;;;;;;37.13;21.70;;;;;;;1.98;80.76;98966.16;5028156;28;20213;-79
2020/12/01 00:53:06;;;;;;;35.95;20.77;;;;;;;1.96;81.17;98962.69;5043740;28;20232;-80
2020/12/01 00:55:33;;;;;;;40.08;21.80;;;;;;;2.00;80.82;98959.00;5025475;28;20236;-77
2020/12/01 00:58:01;;;;;;;41.50;22.10;;;;;;;2.00;80.74;98951.03;5041979;28;20244;-77
2020/12/01 01:00:29;;;;;;;36.97;21.85;;;;;;;2.06;81.25;98937.56;5038074;28;20236;-78
2020/12/01 01:03:07;;;;;;;35.08;21.08;;;;;;;1.99;81.01;98951.97;5041443;28;20228;-77
2020/12/01 01:05:33;;;;;;;39.67;21.30;;;;;;;2.01;81.32;98939.50;5039286;28;20233;-77
2020/12/01 01:07:59;;;;;;;36.90;21.80;;;;;;;2.00;81.48;98937.78;5022500;28;20324;-79
2020/12/01 01:10:29;;;;;;;35.85;20.58;;;;;;;1.99;81.30;98930.75;5027317;28;20221;-78
2020/12/01 01:12:56;;;;;;;40.22;21.67;;;;;;;2.03;81.20;98937.69;5029250;28;20227;-78
2020/12/01 01:15:25;;;;;;;37.50;22.38;;;;;;;2.01;81.72;98928.06;5026392;28;20206;-78
2020/12/01 01:17:51;;;;;;;38.13;22.35;;;;;;;2.08;81.25;98945.47;5020891;28;20229;-78
2020/12/01 01:20:18;;;;;;;37.20;22.13;;;;;;;2.12;81.43;98933.88;5037889;28;20304;-78
2020/12/01 01:22:44;;;;;;;34.58;20.73;;;;;;;2.11;81.08;98927.69;5022534;28;20722;-80
2020/12/01 01:25:10;;;;;;;35.47;21.65;;;;;;;2.08;81.69;98924.28;5022066;28;20225;-78
2020/12/01 01:27:36;;;;;;;37.67;21.35;;;;;;;2.06;81.79;98926.97;5021144;28;20285;-79
2020/12/01 01:30:04;;;;;;;34.20;20.63;;;;;;;1.99;81.72;98917.50;5056325;28;20197;-79
2020/12/01 01:32:30;;;;;;;37.45;20.15;;;;;;;1.98;81.60;98923.72;5022649;28;20232;-78
2020/12/01 01:34:56;;;;;;;34.55;20.70;;;;;;;2.04;82.16;98927.94;5034736;28;20279;-77
2020/12/01 01:37:22;;;;;;;37.60;21.80;;;;;;;2.09;81.71;98918.94;5042327;28;20229;-77
2020/12/01 01:39:49;;;;;;;42.08;20.27;;;;;;;2.11;81.83;98919.72;5040694;28;20237;-78
2020/12/01 01:42:15;;;;;;;32.40;19.80;;;;;;;2.11;82.01;98916.19;5025665;28;20210;-77
2020/12/01 01:44:41;;;;;;;34.13;20.55;;;;;;;2.12;82.03;98907.34;5027290;28;20225;-78
2020/12/01 01:47:25;;;;;;;36.00;21.67;;;;;;;2.06;81.92;98905.75;5029909;28;20271;-79
2020/12/01 01:49:55;;;;;;;36.05;20.55;;;;;;;2.17;82.17;98903.59;5059469;28;20232;-78
2020/12/01 01:52:27;;;;;;;36.83;21.15;;;;;;;2.13;81.99;98899.31;5056851;28;20315;-78
2020/12/01 01:54:59;;;;;;;34.55;21.00;;;;;;;2.12;82.45;98899.38;5057968;28;20233;-78
2020/12/01 01:57:26;;;;;;;35.33;21.25;;;;;;;2.01;82.46;98890.94;5032706;28;20235;-76
2020/12/01 01:59:53;;;;;;;33.90;19.08;;;;;;;2.00;82.73;98895.38;5046682;28;20221;-79
2020/12/01 02:02:19;;;;;;;30.92;18.67;;;;;;;2.02;82.82;98893.53;5033799;28;20221;-78
2020/12/01 02:04:45;;;;;;;35.28;20.52;;;;;;;2.03;82.83;98889.97;5030755;28;20212;-78
2020/12/01 02:07:11;;;;;;;38.63;21.20;;;;;;;2.01;82.29;98888.28;5021258;28;20237;-79
2020/12/01 02:09:45;;;;;;;34.10;19.40;;;;;;;1.98;82.79;98878.66;5031418;28;20197;-79
2020/12/01 02:12:13;;;;;;;33.05;18.65;;;;;;;2.05;83.12;98882.81;5030282;28;20196;-77
2020/12/01 02:14:55;;;;;;;34.08;19.52;;;;;;;2.16;83.01;98872.69;5044843;28;20320;-79
2020/12/01 02:17:31;;;;;;;37.92;21.65;;;;;;;2.20;82.17;98876.94;5054178;28;20284;-79
2020/12/01 02:20:08;;;;;;;34.35;19.92;;;;;;;2.10;82.57;98864.97;5036021;28;20209;-80
2020/12/01 02:22:35;;;;;;;35.33;21.63;;;;;;;2.15;82.38;98863.00;5034937;28;20210;-79
2020/12/01 02:25:03;;;;;;;38.85;20.75;;;;;;;2.10;82.25;98857.00;5052049;28;20229;-79
2020/12/01 02:27:29;;;;;;;33.22;20.58;;;;;;;2.06;82.44;98851.88;5045986;28;20244;-77
2020/12/01 02:29:58;;;;;;;29.52;18.08;;;;;;;2.04;82.76;98843.97;5033674;28;20193;-78
2020/12/01 02:32:26;;;;;;;36.80;20.88;;;;;;;2.08;82.32;98842.94;5041902;28;20209;-78
2020/12/01 02:34:58;;;;;;;35.53;21.00;;;;;;;2.04;82.95;98838.66;5048557;28;20763;-78
2020/12/01 02:37:27;;;;;;;34.30;20.92;;;;;;;2.01;82.71;98838.75;5033202;28;20284;-78
2020/12/01 02:39:54;;;;;;;38.58;22.00;;;;;;;2.00;83.48;98831.72;5012984;28;20312;-78
2020/12/01 02:42:27;;;;;;;34.88;20.40;;;;;;;1.90;82.76;98826.81;5034665;28;20201;-78
2020/12/01 02:44:55;;;;;;;36.85;20.77;;;;;;;2.01;83.37;98817.53;5016496;28;20287;-79
2020/12/01 02:47:38;;;;;;;33.92;19.70;;;;;;;2.09;83.79;98818.16;5017975;28;20228;-78
2020/12/01 02:50:12;;;;;;;34.85;21.20;;;;;;;2.10;83.61;98816.34;5018775;28;20217;-78
2020/12/01 02:52:38;;;;;;;32.45;18.25;;;;;;;2.11;83.69;98818.94;5030287;28;20229;-78
2020/12/01 02:55:05;;;;;;;35.53;21.02;;;;;;;2.09;83.62;98815.50;5032588;28;20217;-78
2020/12/01 02:57:31;;;;;;;31.67;21.08;;;;;;;2.05;83.65;98815.69;5035389;28;20220;-78
2020/12/01 02:59:57;;;;;;;37.35;20.15;;;;;;;2.04;84.00;98806.84;5042108;28;20213;-79
2020/12/01 03:02:23;;;;;;;30.10;18.00;;;;;;;2.08;83.83;98815.56;5055732;28;20221;-78
2020/12/01 03:04:56;;;;;;;34.60;18.80;;;;;;;1.94;84.44;98802.78;5019275;28;20475;-78
2020/12/01 03:07:22;;;;;;;30.95;19.15;;;;;;;2.00;84.45;98801.72;5018592;28;20292;-80
2020/12/01 03:09:48;;;;;;;32.08;20.20;;;;;;;2.02;84.27;98798.09;5037907;28;20213;-78
2020/12/01 03:12:14;;;;;;;36.08;19.13;;;;;;;2.10;84.39;98790.72;5043189;28;20189;-78
2020/12/01 03:14:40;;;;;;;33.60;18.00;;;;;;;2.08;83.90;98799.63;5033349;28;20221;-78
2020/12/01 03:17:06;;;;;;;33.53;19.35;;;;;;;1.96;84.34;98793.00;5010278;28;20222;-79
2020/12/01 03:19:32;;;;;;;33.83;19.30;;;;;;;2.01;84.69;98790.19;5015055;28;20598;-79
2020/12/01 03:21:58;;;;;;;33.25;19.95;;;;;;;2.06;84.69;98777.63;5019762;28;20333;-77
2020/12/01 03:24:24;;;;;;;28.48;18.58;;;;;;;2.03;84.48;98777.72;5038294;28;20252;-78
2020/12/01 03:26:50;;;;;;;29.23;19.33;;;;;;;1.93;84.68;98782.50;5045574;28;20665;-79
2020/12/01 03:29:16;;;;;;;29.65;17.35;;;;;;;1.92;85.01;98778.13;5033393;28;20221;-79
2020/12/01 03:31:42;;;;;;;29.92;18.02;;;;;;;1.94;85.50;98778.94;5039241;28;20232;-79
2020/12/01 03:34:08;;;;;;;29.42;17.83;;;;;;;1.90;85.52;98779.97;5035622;28;20213;-78
2020/12/01 03:36:34;;;;;;;31.48;18.70;;;;;;;1.90;85.42;98782.63;5048579;28;20221;-79
2020/12/01 03:39:00;;;;;;;29.67;18.38;;;;;;;1.92;85.69;98775.47;5021244;28;20207;-79
2020/12/01 03:41:26;;;;;;;28.23;17.83;;;;;;;1.91;85.59;98770.22;5019921;28;20240;-78
2020/12/01 03:43:52;;;;;;;28.63;16.83;;;;;;;1.92;85.65;98770.19;5017299;28;20577;-79
2020/12/01 03:46:18;;;;;;;26.25;17.48;;;;;;;1.90;85.98;98772.03;5021986;28;20221;-79
2020/12/01 03:48:44;;;;;;;27.25;17.02;;;;;;;1.88;85.91;98779.16;5032063;28;20197;-77
2020/12/01 03:51:10;;;;;;;30.00;17.30;;;;;;;1.84;86.48;98772.25;5030991;28;20194;-78
2020/12/01 03:53:36;;;;;;;25.63;16.00;;;;;;;1.93;86.70;98769.25;5031661;28;20228;-78
2020/12/01 03:56:03;;;;;;;27.52;15.85;;;;;;;1.92;86.41;98767.53;5012166;28;20601;-78
2020/12/01 03:58:30;;;;;;;25.55;15.60;;;;;;;1.89;86.60;98764.13;5018420;28;20228;-79
2020/12/01 04:00:56;;;;;;;26.48;15.70;;;;;;;1.84;86.85;98766.94;5016247;28;20607;-80
2020/12/01 04:03:22;;;;;;;26.02;16.60;;;;;;;1.86;86.78;98764.25;5016885;28;20396;-78
2020/12/01 04:05:48;;;;;;;22.80;14.48;;;;;;;1.91;86.41;98757.84;5017673;28;20300;-79
2020/12/01 04:08:14;;;;;;;21.48;15.00;;;;;;;1.96;86.31;98755.03;5030785;28;20660;-78
2020/12/01 04:10:40;;;;;;;23.77;15.30;;;;;;;1.99;85.46;98761.06;5031172;28;20221;-79
2020/12/01 04:13:07;;;;;;;20.63;13.23;;;;;;;2.05;84.73;98754.69;5032634;28;20247;-78
2020/12/01 04:15:33;;;;;;;22.05;14.18;;;;;;;2.09;84.17;98759.81;5015558;28;20209;-78
2020/12/01 04:17:59;;;;;;;21.70;14.25;;;;;;;2.05;84.52;98760.00;5016475;28;20221;-77
2020/12/01 04:20:25;;;;;;;21.42;13.48;;;;;;;2.16;84.61;98750.69;5030348;28;20235;-78
2020/12/01 04:22:53;;;;;;;20.42;13.13;;;;;;;2.26;83.90;98752.06;5008915;28;20253;-77
2020/12/01 04:25:21;;;;;;;21.55;14.10;;;;;;;2.20;83.74;98738.19;5018236;28;20236;-79
2020/12/01 04:27:49;;;;;;;22.55;14.73;;;;;;;2.20;84.04;98732.88;5042604;28;20719;-79
2020/12/01 04:30:17;;;;;;;24.30;14.70;;;;;;;2.21;83.60;98738.13;5044006;28;20270;-79
2020/12/01 04:32:43;;;;;;;21.65;14.85;;;;;;;2.21;84.18;98729.31;5041894;28;20217;-78
2020/12/01 04:35:10;;;;;;;23.33;14.50;;;;;;;2.21;84.14;98735.47;5017466;28;20225;-77
2020/12/01 04:37:36;;;;;;;23.88;14.77;;;;;;;2.19;84.19;98729.34;5016811;28;20221;-78
2020/12/01 04:40:05;;;;;;;21.52;14.60;;;;;;;2.17;84.58;98723.25;5036012;28;20232;-78
2020/12/01 04:42:33;;;;;;;26.33;16.50;;;;;;;2.17;84.13;98723.25;5033277;28;20213;-78
2020/12/01 04:45:09;;;;;;;25.02;16.13;;;;;;;2.05;84.45;98715.75;5020784;28;20297;-77
2020/12/01 04:47:48;;;;;;;29.17;17.17;;;;;;;2.05;84.77;98720.22;5037527;28;20243;-79
2020/12/01 04:50:22;;;;;;;28.95;16.83;;;;;;;2.17;85.19;98720.59;5034382;28;20243;-78
2020/12/01 04:53:24;;;;;;;28.77;16.95;;;;;;;2.12;84.59;98713.75;5033456;28;20252;-78
2020/12/01 04:56:22;;;;;;;29.90;17.40;;;;;;;2.11;84.87;98712.88;5024756;28;20239;-78
2020/12/01 04:59:00;;;;;;;24.52;15.68;;;;;;;2.14;85.11;98712.78;5033566;28;20217;-77
2020/12/01 05:01:47;;;;;;;27.05;16.38;;;;;;;2.17;84.75;98709.13;5032053;28;20734;-79
2020/12/01 05:04:28;;;;;;;33.28;16.67;;;;;;;2.14;84.82;98712.78;5031161;28;20291;-79
2020/12/01 05:07:16;;;;;;;27.00;16.83;;;;;;;2.01;85.41;98716.78;5033296;28;20228;-78
2020/12/01 05:09:45;;;;;;;26.92;16.75;;;;;;;2.01;85.49;98703.53;5033831;28;20209;-77
2020/12/01 05:12:22;;;;;;;29.33;16.67;;;;;;;2.09;85.63;98709.44;5038832;28;20194;-79
2020/12/01 05:14:53;;;;;;;27.67;17.85;;;;;;;2.11;85.67;98712.88;5033764;28;20216;-78
2020/12/01 05:17:35;;;;;;;28.05;17.20;;;;;;;2.13;85.73;98704.88;5029320;28;20228;-78
2020/12/01 05:20:03;;;;;;;28.67;16.92;;;;;;;2.08;85.76;98705.06;5049109;28;20249;-78
2020/12/01 05:22:29;;;;;;;28.92;15.95;;;;;;;2.12;85.83;98708.47;5018204;28;20224;-78
2020/12/01 05:24:55;;;;;;;27.17;16.57;;;;;;;2.19;85.98;98710.78;5034975;28;22763;-78
2020/12/01 05:27:35;;;;;;;33.20;17.67;;;;;;;2.21;85.64;98711.63;5028823;28;20571;-79
2020/12/01 05:30:22;;;;;;;31.25;17.25;;;;;;;2.24;85.62;98719.44;5034493;28;20309;-79
2020/12/01 05:33:24;;;;;;;28.52;17.75;;;;;;;2.24;85.75;98714.13;5016622;28;20218;-79
2020/12/01 05:36:15;;;;;;;25.52;15.65;;;;;;;2.26;85.67;98717.56;5037366;28;20225;-79
2020/12/01 05:38:41;;;;;;;28.15;18.05;;;;;;;2.28;86.28;98721.06;5033172;28;20221;-77
2020/12/01 05:41:36;;;;;;;29.98;17.10;;;;;;;2.39;85.80;98724.13;5015981;28;20236;-78
2020/12/01 05:44:15;;;;;;;27.55;17.63;;;;;;;2.34;85.20;98719.94;5014311;28;20259;-78
2020/12/01 05:46:48;;;;;;;31.30;17.45;;;;;;;2.33;85.49;98720.88;5036259;28;20232;-78
2020/12/01 05:49:38;;;;;;;28.77;17.17;;;;;;;2.32;86.07;98716.50;5035440;28;20260;-78
2020/12/01 05:52:29;;;;;;;26.65;16.63;;;;;;;2.33;86.07;98716.41;5028915;28;20229;-78
2020/12/01 05:55:19;;;;;;;28.02;16.83;;;;;;;2.27;86.13;98724.63;5018590;28;20217;-78
2020/12/01 05:58:17;;;;;;;29.27;17.60;;;;;;;2.26;86.19;98722.88;5033518;28;20225;-78
2020/12/01 06:00:43;;;;;;;25.17;16.48;;;;;;;2.28;86.62;98713.09;5014121;28;20213;-77
2020/12/01 06:03:30;;;;;;;29.48;17.75;;;;;;;2.33;87.01;98720.88;5035495;28;20293;-79
2020/12/01 06:06:00;;;;;;;33.70;20.00;;;;;;;2.37;86.20;98723.34;5036264;28;20225;-78
2020/12/01 06:08:48;;;;;;;32.00;18.10;;;;;;;2.36;85.79;98716.31;5039294;28;20225;-79
2020/12/01 06:11:26;;;;;;;28.77;18.48;;;;;;;2.37;86.74;98717.19;5039407;28;20217;-79
2020/12/01 06:13:59;;;;;;;28.42;16.63;;;;;;;2.32;86.31;98716.50;5033018;28;20220;-79
2020/12/01 06:16:46;;;;;;;29.85;16.08;;;;;;;2.38;86.60;98710.94;5017373;28;20217;-78
2020/12/01 06:19:18;;;;;;;26.83;16.42;;;;;;;2.24;86.14;98719.44;5014714;28;20236;-77
2020/12/01 06:22:19;;;;;;;28.95;17.02;;;;;;;2.26;86.41;98708.78;5035248;28;20210;-80
2020/12/01 06:25:12;;;;;;;29.92;17.27;;;;;;;2.19;86.46;98710.78;5034431;28;20615;-77
2020/12/01 06:27:56;;;;;;;26.02;17.10;;;;;;;2.15;86.95;98711.84;5047688;28;20236;-79
2020/12/01 06:30:35;;;;;;;28.83;16.73;;;;;;;2.31;86.55;98707.66;5030850;28;20193;-78
2020/12/01 06:33:39;;;;;;;27.60;16.48;;;;;;;2.30;86.67;98713.88;5016312;28;20217;-77
2020/12/01 06:36:43;;;;;;;23.77;15.05;;;;;;;2.34;86.18;98712.84;5023736;28;20286;-78
2020/12/01 06:39:34;;;;;;;24.50;14.38;;;;;;;2.35;86.09;98711.06;5025484;28;20745;-78
2020/12/01 06:42:23;;;;;;;27.35;16.35;;;;;;;2.34;86.21;98710.22;5032111;28;20225;-80
2020/12/01 06:44:58;;;;;;;25.23;15.13;;;;;;;2.42;86.05;98707.22;5048573;28;20221;-78
2020/12/01 06:47:29;;;;;;;24.30;14.45;;;;;;;2.37;85.76;98714.53;5020027;28;20224;-77
2020/12/01 06:50:06;;;;;;;22.25;14.45;;;;;;;2.41;85.88;98711.69;5036929;28;20233;-77
2020/12/01 06:53:01;;;;;;;36.17;22.88;;;;;;;2.35;85.70;98711.06;5028073;28;20216;-77
2020/12/01 06:55:42;;;;;;;23.48;14.15;;;;;;;2.28;85.95;98710.44;5029805;28;20830;-79
2020/12/01 06:58:17;;;;;;;24.33;14.85;;;;;;;2.22;86.48;98710.69;5044254;28;20711;-79
2020/12/01 07:00:43;;;;;;;19.77;13.25;;;;;;;2.28;86.41;98717.53;5046620;28;20204;-78
2020/12/01 07:03:10;;;;;;;20.00;14.32;;;;;;;2.30;86.26;98724.50;5034628;28;20862;-78
2020/12/01 07:05:36;;;;;;;23.88;15.48;;;;;;;2.20;86.80;98723.13;5033512;28;20308;-77
2020/12/01 07:08:22;;;;;;;23.35;15.00;;;;;;;2.16;86.95;98718.88;5022586;28;20244;-78
2020/12/01 07:10:58;;;;;;;18.75;13.80;;;;;;;2.27;86.77;98719.34;5037561;28;20236;-78
2020/12/01 07:13:59;;;;;;;22.85;14.75;;;;;;;2.28;86.09;98720.19;5021302;28;20615;-78
2020/12/01 07:16:38;;;;;;;22.58;15.23;;;;;;;2.26;86.44;98722.03;5030866;28;20259;-78
2020/12/01 07:19:18;;;;;;;24.17;14.73;;;;;;;2.11;86.98;98717.31;5036353;28;20223;-77
2020/12/01 07:22:13;;;;;;;23.08;15.82;;;;;;;2.17;86.96;98723.25;5032573;28;20560;-78
2020/12/01 07:24:45;;;;;;;21.77;14.18;;;;;;;2.20;87.08;98717.81;5023791;28;20191;-78
2020/12/01 07:27:18;;;;;;;22.75;14.80;;;;;;;2.29;86.75;98722.78;5020304;28;20241;-78
2020/12/01 07:30:12;;;;;;;22.98;15.50;;;;;;;2.32;87.01;98719.16;5030131;28;20704;-78
2020/12/01 07:32:50;;;;;;;20.90;14.38;;;;;;;2.40;86.52;98720.59;5003308;28;20239;-78
2020/12/01 07:35:32;;;;;;;25.02;15.05;;;;;;;2.47;85.94;98716.75;5010211;28;20224;-78
2020/12/01 07:38:03;;;;;;;19.73;13.95;;;;;;;2.49;85.47;98720.19;5026319;28;20244;-77
2020/12/01 07:40:40;;;;;;;23.30;14.45;;;;;;;2.51;85.58;98723.66;5030283;28;20336;-77
2020/12/01 07:43:06;;;;;;;24.90;14.93;;;;;;;2.48;85.52;98728.22;5048593;28;20217;-80
2020/12/01 07:45:32;;;;;;;21.95;14.80;;;;;;;2.59;86.00;98715.38;5016259;28;20229;-79
2020/12/01 07:48:00;;;;;;;24.17;14.97;;;;;;;2.68;84.88;98720.31;5039323;28;20240;-78
2020/12/01 07:50:28;;;;;;;23.75;15.25;;;;;;;2.62;85.55;98725.88;5032314;28;20464;-78
2020/12/01 07:52:59;;;;;;;23.20;15.63;;;;;;;2.75;84.75;98722.66;5047700;28;20274;-79
2020/12/01 07:55:37;;;;;;;21.15;13.68;;;;;;;2.77;84.86;98726.09;5037338;28;20240;-78
2020/12/01 07:58:12;;;;;;;23.40;14.55;;;;;;;2.78;84.49;98719.03;5035030;28;20233;-81
2020/12/01 08:00:38;;;;;;;21.55;14.50;;;;;;;2.84;84.25;98727.56;5046392;28;20200;-79
2020/12/01 08:03:14;;;;;;;22.77;14.35;;;;;;;2.89;84.13;98727.41;5035648;28;20221;-78
2020/12/01 08:05:40;;;;;;;23.08;15.43;;;;;;;2.91;84.31;98729.09;5022264;28;20231;-79
2020/12/01 08:08:13;;;;;;;21.33;14.93;;;;;;;2.93;83.98;98729.88;5036543;28;20236;-78
2020/12/01 08:10:39;;;;;;;22.85;15.45;;;;;;;2.88;84.54;98729.19;5035245;28;20232;-77
2020/12/01 08:13:07;;;;;;;23.77;15.82;;;;;;;2.88;84.21;98731.84;5037533;28;20224;-77
2020/12/01 08:15:33;;;;;;;24.98;16.45;;;;;;;2.88;84.29;98723.88;5047402;28;20205;-78
2020/12/01 08:18:05;;;;;;;23.98;15.32;;;;;;;2.89;85.13;98733.56;5035583;28;20221;-80
2020/12/01 08:20:32;;;;;;;25.50;15.65;;;;;;;3.03;84.83;98740.97;5042448;28;20248;-78
2020/12/01 08:23:12;;;;;;;22.92;15.60;;;;;;;3.07;84.28;98740.78;5029919;28;20217;-78
2020/12/01 08:26:17;;;;;;;25.67;16.17;;;;;;;3.21;83.91;98741.06;5031616;28;20295;-79
2020/12/01 08:28:47;;;;;;;23.48;14.52;;;;;;;3.09;83.17;98741.56;5028744;28;20228;-79
2020/12/01 08:31:32;;;;;;;24.90;15.77;;;;;;;2.96;83.77;98742.16;5030535;28;20316;-78
2020/12/01 08:34:45;;;;;;;24.95;17.20;;;;;;;3.06;84.12;98744.38;5032391;28;20229;-78
2020/12/01 08:37:25;;;;;;;25.25;14.43;;;;;;;3.02;84.04;98745.41;5016883;28;21508;-78
2020/12/01 08:40:08;;;;;;;25.27;15.25;;;;;;;3.10;84.11;98739.78;5030536;28;20232;-80
2020/12/01 08:42:56;;;;;;;24.67;16.05;;;;;;;3.08;84.68;98731.88;5032307;28;20706;-79
2020/12/01 08:45:32;;;;;;;28.30;16.73;;;;;;;3.11;84.50;98736.19;5032366;28;20194;-80
2020/12/01 08:48:03;;;;;;;25.83;16.58;;;;;;;3.05;84.34;98740.00;5042364;28;20256;-78
2020/12/01 08:50:35;;;;;;;29.52;17.02;;;;;;;3.11;85.04;98737.06;5017133;28;20213;-78
2020/12/01 08:53:09;;;;;;;29.30;17.52;;;;;;;3.04;84.95;98748.00;5013191;28;20724;-78
2020/12/01 08:55:41;;;;;;;25.42;17.70;;;;;;;3.13;85.11;98745.84;5029254;28;20259;-78
2020/12/01 08:58:22;;;;;;;33.20;17.90;;;;;;;3.14;85.24;98738.75;5045241;28;20229;-79
2020/12/01 09:01:14;;;;;;;29.25;15.80;;;;;;;3.34;85.22;98739.59;5032738;28;20698;-79
2020/12/01 09:03:57;;;;;;;24.23;14.57;;;;;;;3.37;83.98;98743.91;5045298;28;20236;-79
2020/12/01 09:06:33;;;;;;;22.65;15.40;;;;;;;3.32;83.82;98737.94;5055814;28;20240;-79
2020/12/01 09:09:06;;;;;;;26.52;16.80;;;;;;;3.35;84.49;98743.13;5018461;28;20217;-79
2020/12/01 09:21:01;;;;;;;18.80;13.32;;;;;;;3.39;84.03;98748.25;5047320;28;20233;-79
2020/12/01 09:23:25;;;;;;;23.48;14.07;;;;;;;3.36;84.16;98748.38;5019863;28;20228;-79
2020/12/01 09:25:53;;;;;;;18.05;12.85;;;;;;;3.55;84.00;98748.44;5020896;28;20231;-78
2020/12/01 09:28:23;;;;;;;21.52;14.32;;;;;;;3.50;83.87;98748.66;5034155;28;20223;-78
2020/12/01 09:30:50;;;;;;;20.38;13.75;;;;;;;3.62;83.48;98745.47;5019800;28;20237;-78
2020/12/01 09:33:22;;;;;;;21.15;12.90;;;;;;;3.73;82.76;98745.81;5028901;28;20197;-77
2020/12/01 09:35:50;;;;;;;20.90;14.00;;;;;;;3.64;82.51;98746.25;5035087;28;20282;-78
2020/12/01 09:38:17;;;;;;;19.48;12.50;;;;;;;3.68;82.78;98758.47;5036843;28;20216;-80
2020/12/01 09:40:47;;;;;;;18.67;12.75;;;;;;;3.79;82.33;98756.19;5015329;28;20312;-79
2020/12/01 09:45:59;;;;;;;19.15;12.10;;;;;;;3.84;82.50;98751.53;5054344;28;20227;-79
2020/12/01 09:48:31;;;;;;;17.10;11.73;;;;;;;3.87;81.98;98756.72;5050384;28;20193;-79
2020/12/01 09:50:57;;;;;;;22.48;12.20;;;;;;;3.89;81.96;98760.19;5015070;28;20229;-79
2020/12/01 09:56:43;;;;;;;21.15;13.40;;;;;;;3.82;82.34;98763.16;5037829;28;20232;-79
2020/12/01 10:05:14;;;;;;;19.73;13.48;;;;;;;3.70;83.01;98753.06;4984220;28;20233;-79
2020/12/01 10:08:17;;;;;;;18.08;12.93;;;;;;;3.80;82.61;98752.59;5035024;28;20308;-78
2020/12/01 10:19:01;;;;;;;28.30;18.13;;;;;;;4.08;81.41;98762.84;5050773;28;20194;-78
2020/12/01 10:34:53;;;;;;;24.60;13.32;;;;;;;4.26;80.98;98754.91;5047643;28;20232;-78
2020/12/01 10:37:19;;;;;;;21.13;13.20;;;;;;;4.31;81.52;98752.88;5016131;28;20233;-78
2020/12/01 10:39:45;;;;;;;20.15;12.73;;;;;;;4.31;81.24;98758.19;5030374;28;20201;-77
2020/12/01 10:42:13;;;;;;;23.52;14.15;;;;;;;4.27;81.30;98759.31;5037406;28;20539;-80
2020/12/01 10:44:39;;;;;;;20.08;12.80;;;;;;;4.41;81.00;98758.63;5032971;28;20229;-78
2020/12/01 10:47:06;;;;;;;21.27;13.63;;;;;;;4.37;80.32;98757.91;5028597;28;20312;-79
2020/12/01 10:49:32;;;;;;;16.42;10.70;;;;;;;4.25;80.37;98753.16;5037638;28;20225;-77
2020/12/01 10:51:58;;;;;;;20.50;13.27;;;;;;;4.24;81.56;98758.56;5032135;28;20243;-78
2020/12/01 10:54:27;;;;;;;21.70;12.32;;;;;;;4.35;81.15;98758.91;5032995;28;20213;-79
2020/12/01 10:56:53;;;;;;;20.73;13.52;;;;;;;4.35;81.52;98754.47;5034842;28;20260;-78
2020/12/01 10:59:22;;;;;;;17.50;12.15;;;;;;;4.38;80.67;98749.03;5022944;28;20231;-79
2020/12/01 11:01:48;;;;;;;17.45;11.50;;;;;;;4.47;80.88;98753.91;5050441;28;20217;-79
2020/12/01 11:04:15;;;;;;;17.35;10.77;;;;;;;4.38;80.53;98759.69;5028048;28;20225;-79
2020/12/01 11:06:41;;;;;;;17.25;11.48;;;;;;;4.25;81.37;98755.81;5020328;28;20639;-80
2020/12/01 11:09:09;;;;;;;15.85;10.57;;;;;;;4.36;81.32;98761.53;5018712;28;20200;-78
2020/12/01 11:11:36;;;;;;;15.98;11.70;;;;;;;4.37;81.13;98757.06;5045602;28;20248;-78
2020/12/01 11:14:03;;;;;;;17.98;11.88;;;;;;;4.38;81.78;98756.13;5052701;28;20268;-78
2020/12/01 11:16:34;;;;;;;15.27;11.20;;;;;;;4.36;81.39;98753.53;5044229;28;21193;-78
2020/12/01 11:19:00;;;;;;;17.40;11.38;;;;;;;4.37;81.90;98759.72;5035402;28;20656;-79
2020/12/01 11:21:26;;;;;;;15.25;10.75;;;;;;;4.41;81.26;98756.84;5034275;28;20277;-77
2020/12/01 11:23:52;;;;;;;19.80;11.10;;;;;;;4.41;82.12;98764.84;5042431;22;20222;-85
2020/12/01 11:26:20;;;;;;;17.38;10.98;;;;;;;4.59;81.14;98763.97;5009138;28;20613;-85
2020/12/01 11:28:50;;;;;;;15.73;10.20;;;;;;;4.45;81.27;98758.44;4988810;28;20282;-83
2020/12/01 11:31:18;;;;;;;16.48;11.23;;;;;;;4.53;81.75;98763.38;4979068;28;20226;-87
2020/12/01 11:33:57;;;;;;;15.10;10.85;;;;;;;4.52;81.89;98761.66;4975680;28;20223;-85
2020/12/01 11:36:51;;;;;;;17.05;12.50;;;;;;;4.61;81.59;98756.75;4953357;28;20277;-86
2020/12/01 11:39:17;;;;;;;17.08;11.15;;;;;;;4.53;81.43;98758.94;4983186;28;20222;-86
2020/12/01 11:41:45;;;;;;;15.80;11.35;;;;;;;4.46;81.67;98752.19;4979792;28;20222;-86
2020/12/01 11:44:14;;;;;;;13.68;10.05;;;;;;;4.51;82.12;98759.94;4984501;28;20241;-84
2020/12/01 11:46:42;;;;;;;15.20;11.30;;;;;;;4.39;82.01;98761.41;4969290;28;20591;-85
2020/12/01 11:49:09;;;;;;;13.13;9.48;;;;;;;4.39;81.65;98768.50;4967226;28;20728;-85
2020/12/01 11:51:38;;;;;;;17.25;11.27;;;;;;;4.12;81.96;98762.66;4981695;28;20198;-85
2020/12/01 11:54:05;;;;;;;15.13;10.55;;;;;;;4.17;83.02;98768.63;4988204;28;20265;-81
2020/12/01 11:56:36;;;;;;;14.90;10.38;;;;;;;4.24;82.99;98762.09;4968573;28;20736;-81
2020/12/01 11:59:03;;;;;;;16.48;11.02;;;;;;;4.41;82.49;98769.28;4987917;28;20219;-86
2020/12/01 12:01:30;;;;;;;16.30;9.70;;;;;;;4.53;81.51;98756.28;4980921;28;20230;-86
2020/12/01 12:03:57;;;;;;;13.60;10.85;;;;;;;4.46;81.73;98760.16;4992258;28;20237;-87
2020/12/01 12:06:23;;;;;;;14.18;9.82;;;;;;;4.36;81.64;98761.53;4981748;28;20349;-86
2020/12/01 12:08:49;;;;;;;14.57;10.27;;;;;;;4.46;81.22;98756.63;4975373;28;20312;-85
2020/12/01 12:11:16;;;;;;;15.35;10.50;;;;;;;4.56;80.98;98763.25;4996080;28;20219;-85
2020/12/01 12:13:46;;;;;;;14.98;10.07;;;;;;;4.61;80.42;98756.75;4989249;28;20313;-85
2020/12/01 12:16:17;;;;;;;12.25;9.75;;;;;;;4.61;80.04;98762.09;4998099;28;20257;-86
2020/12/01 12:18:47;;;;;;;12.02;9.18;;;;;;;4.75;80.06;98767.63;5016859;28;20186;-86
2020/12/01 12:21:13;;;;;;;13.88;9.30;;;;;;;4.75;79.68;98764.94;4999378;28;20274;-86
2020/12/01 12:23:40;;;;;;;11.23;9.05;;;;;;;4.83;79.44;98762.81;5013066;28;20266;-85
2020/12/01 12:26:09;;;;;;;12.52;9.00;;;;;;;4.78;79.16;98753.28;5011537;28;20218;-87
2020/12/01 12:28:35;;;;;;;14.80;9.90;;;;;;;4.72;79.55;98761.56;5009572;28;20215;-85
2020/12/01 12:31:02;;;;;;;12.48;9.35;;;;;;;4.75;79.50;98761.44;5020428;28;20195;-86
2020/12/01 12:33:33;;;;;;;12.88;10.10;;;;;;;4.82;79.27;98765.53;4990424;28;20207;-87